F/V Mailys Charlie — FMIW — position and weather

sailwx.info

Track history (hours):
 
Tides and Currents Weather Stations Pressure Air Temp Water Temp Dewpoint Dewpoint Depression Visibility Wind Speed Wind Dir Waves Ship Positions

F/V Mailys Charlie

Last reported at 2017-Oct-11 00:00 UTC. Time now 2017-Oct-17 17:24 UTC.
Position N 43°46' W 002°25'.

Length 19 m.

Type: Fishing. MMSI: 228240800.

Date/timePositionNaut miles runAvg speedWind from/ knotsBaromVisibWave heightAir tempDewpointWater temp
2017-Oct-11 00:00N 43°46' W 002°25'2 4.0
2017-Oct-10 23:30N 43°48' W 002°26'2 4.2
2017-Oct-10 23:00N 43°50' W 002°25'2 4.0
2017-Oct-10 22:30N 43°51' W 002°23'2 3.6
2017-Oct-10 22:00N 43°52' W 002°25'2 3.1
2017-Oct-10 21:30N 43°53' W 002°26'2 4.4
2017-Oct-10 21:00N 43°55' W 002°26'2 4.4
2017-Oct-10 20:30N 43°58' W 002°25'2 4.4
2017-Oct-10 20:00N 43°60' W 002°25'1 2.7
2017-Oct-10 19:30N 44°01' W 002°25'2 4.2
2017-Oct-10 19:00N 44°01' W 002°28'2 3.3
2017-Oct-10 18:30N 44°02' W 002°30'1 2.9
2017-Oct-10 18:00N 44°03' W 002°30'3 6.0
2017-Oct-10 17:30N 44°06' W 002°33'5 9.4
2017-Oct-10 17:00N 44°10' W 002°36'5 9.7
2017-Oct-10 16:30N 44°14' W 002°40'5 9.6
2017-Oct-10 16:00N 44°18' W 002°43'5 9.7
2017-Oct-10 15:30N 44°22' W 002°47'5 9.5
2017-Oct-10 15:00N 44°26' W 002°50'164 7.8
2017-Oct-09 17:52N 47°10' W 002°42'3 8.7
2017-Oct-09 17:30N 47°13' W 002°39'5 8.8
2017-Oct-09 16:59N 47°17' W 002°36'4 8.4
2017-Oct-09 16:30N 47°20' W 002°32'1 1.7
2017-Oct-09 15:59N 47°21' W 002°31'0 0.0
2017-Oct-09 13:22N 47°21' W 002°31'0 0.0
2017-Oct-09 12:49N 47°21' W 002°31'0 0.0
2017-Oct-09 11:57N 47°21' W 002°31'0 0.0
2017-Oct-09 11:23N 47°21' W 002°31'0 0.0
2017-Oct-09 10:57N 47°21' W 002°31'0 0.0
2017-Oct-09 08:39N 47°21' W 002°31'0 0.0
2017-Oct-09 08:29N 47°21' W 002°31'0 0.0
2017-Oct-09 07:57N 47°21' W 002°31'0 0.0
2017-Oct-09 07:17N 47°21' W 002°31'0 0.0
2017-Oct-09 06:58N 47°21' W 002°31'0 0.0
2017-Oct-09 06:28N 47°21' W 002°31'0 0.0
2017-Oct-09 06:00N 47°21' W 002°31'0 0.0
2017-Oct-09 05:30N 47°21' W 002°31'0 0.0
2017-Oct-09 04:59N 47°21' W 002°31'0 0.0
2017-Oct-09 04:29N 47°21' W 002°31'0 0.0
2017-Oct-09 04:00N 47°21' W 002°31'0 0.0
2017-Oct-09 03:30N 47°21' W 002°31'0 0.0
2017-Oct-09 03:00N 47°21' W 002°31'0 0.0
2017-Oct-09 02:27N 47°21' W 002°31'0 0.0
2017-Oct-09 02:00N 47°21' W 002°31'0 0.0
2017-Oct-09 01:30N 47°21' W 002°31'0 0.0
2017-Oct-09 00:59N 47°21' W 002°31'0 0.0
2017-Oct-09 00:29N 47°21' W 002°31'0 0.0
2017-Oct-08 22:59N 47°21' W 002°31'0 0.0
2017-Oct-08 22:29N 47°21' W 002°31'0 0.0
2017-Oct-08 21:58N 47°21' W 002°31'0 0.0
2017-Oct-08 21:29N 47°21' W 002°31'0 0.0
2017-Oct-08 20:52N 47°21' W 002°31'0 0.0
2017-Oct-08 20:27N 47°21' W 002°31'0 0.0
2017-Oct-08 20:00N 47°21' W 002°31'0 0.0
2017-Oct-08 19:29N 47°21' W 002°31'0 0.0
2017-Oct-08 18:59N 47°21' W 002°31'0 0.0
2017-Oct-08 18:29N 47°21' W 002°31'0 0.0
2017-Oct-08 17:57N 47°21' W 002°31'0 0.0
2017-Oct-08 17:30N 47°21' W 002°31'0 0.0
2017-Oct-08 17:00N 47°21' W 002°31'0 0.0
2017-Oct-08 16:29N 47°21' W 002°31'0 0.0
2017-Oct-08 16:00N 47°21' W 002°31'0 0.0
2017-Oct-08 15:30N 47°21' W 002°31'0 0.0
2017-Oct-08 15:00N 47°21' W 002°31'0 0.0
2017-Oct-08 14:28N 47°21' W 002°31'0 0.0
2017-Oct-08 13:59N 47°21' W 002°31'0 0.0
2017-Oct-08 13:30N 47°21' W 002°31'0 0.0
2017-Oct-08 12:59N 47°21' W 002°31'0 0.0
2017-Oct-08 10:21N 47°21' W 002°31'0 0.0
2017-Oct-08 09:59N 47°21' W 002°31'0 0.0
2017-Oct-08 09:29N 47°21' W 002°31'0 0.0
2017-Oct-08 08:59N 47°21' W 002°31'0 0.0
2017-Oct-08 08:25N 47°21' W 002°31'0 0.0
2017-Oct-08 07:59N 47°21' W 002°31'0 0.0
2017-Oct-08 07:24N 47°21' W 002°31'0 0.0
2017-Oct-08 06:52N 47°21' W 002°31'0 0.0
2017-Oct-08 06:30N 47°21' W 002°31'0 0.0
2017-Oct-08 05:58N 47°21' W 002°31'0 0.0
2017-Oct-08 05:24N 47°21' W 002°31'0 0.0
2017-Oct-08 04:59N 47°21' W 002°31'0 0.0
2017-Oct-08 04:29N 47°21' W 002°31'0 0.0
2017-Oct-08 04:00N 47°21' W 002°31'0 0.0
2017-Oct-08 03:30N 47°21' W 002°31'0 0.0
2017-Oct-08 03:00N 47°21' W 002°31'0 0.0
2017-Oct-08 02:30N 47°21' W 002°31'0 0.0
2017-Oct-08 02:00N 47°21' W 002°31'0 0.0
2017-Oct-08 01:29N 47°21' W 002°31'0 0.0
2017-Oct-08 00:58N 47°21' W 002°31'0 0.0
2017-Oct-08 00:22N 47°21' W 002°31'0 0.0
2017-Oct-07 21:12N 47°21' W 002°31'0 0.0
2017-Oct-07 20:58N 47°21' W 002°31'0 0.0
2017-Oct-07 20:20N 47°21' W 002°31'0 0.0
2017-Oct-07 19:52N 47°21' W 002°31'0 0.0
2017-Oct-07 19:26N 47°21' W 002°31'0 0.0
2017-Oct-07 19:00N 47°21' W 002°31'0 0.0
2017-Oct-07 18:30N 47°21' W 002°31'0 0.0
2017-Oct-07 18:00N 47°21' W 002°31'0 0.0
2017-Oct-07 17:30N 47°21' W 002°31'0 0.0
2017-Oct-07 16:59N 47°21' W 002°31'0 0.0
2017-Oct-07 16:30N 47°21' W 002°31'0 0.0
2017-Oct-07 16:00N 47°21' W 002°31'0 0.0
2017-Oct-07 15:30N 47°21' W 002°31'0 0.0
2017-Oct-07 15:00N 47°21' W 002°31'0 0.0
2017-Oct-07 14:29N 47°21' W 002°31'0 0.0
2017-Oct-07 14:00N 47°21' W 002°31'0 0.0
2017-Oct-07 13:27N 47°21' W 002°31'0 0.0
2017-Oct-07 08:24N 47°21' W 002°31'0 0.0
2017-Oct-07 07:59N 47°21' W 002°31'0 0.0
2017-Oct-07 07:29N 47°21' W 002°31'0 0.0
2017-Oct-07 07:00N 47°21' W 002°31'0 0.0
2017-Oct-07 06:28N 47°21' W 002°31'0 0.0
2017-Oct-07 05:58N 47°21' W 002°31'0 0.0
2017-Oct-07 05:22N 47°21' W 002°31'0 0.0
2017-Oct-07 04:57N 47°21' W 002°31'0 0.0
2017-Oct-07 04:28N 47°21' W 002°31'0 0.0
2017-Oct-07 03:58N 47°21' W 002°31'0 0.0
2017-Oct-07 03:30N 47°21' W 002°31'0 0.0
2017-Oct-07 02:59N 47°21' W 002°31'0 0.0
2017-Oct-07 02:30N 47°21' W 002°31'0 0.0
2017-Oct-07 01:59N 47°21' W 002°31'0 0.0
2017-Oct-07 01:30N 47°21' W 002°31'0 0.0
2017-Oct-07 01:00N 47°21' W 002°31'0 0.0
2017-Oct-07 00:29N 47°21' W 002°31'0 0.0
2017-Oct-07 00:00N 47°21' W 002°31'0 0.0
2017-Oct-06 23:30N 47°21' W 002°31'0 0.0
2017-Oct-06 22:39N 47°21' W 002°31'0 0.0
2017-Oct-06 22:30N 47°21' W 002°31'0 0.0
2017-Oct-06 21:15N 47°21' W 002°31'0 0.0
2017-Oct-06 21:00N 47°21' W 002°31'0 0.0
2017-Oct-06 20:29N 47°21' W 002°31'0 0.0
2017-Oct-06 20:00N 47°21' W 002°31'0 0.0
2017-Oct-06 19:27N 47°21' W 002°31'0 0.0
2017-Oct-06 18:57N 47°21' W 002°31'0 0.0
2017-Oct-06 18:29N 47°21' W 002°31'0 0.0
2017-Oct-06 18:00N 47°21' W 002°31'0 0.0
2017-Oct-06 17:30N 47°21' W 002°31'0 0.0
2017-Oct-06 17:00N 47°21' W 002°31'0 0.0
2017-Oct-06 16:30N 47°21' W 002°31'0 0.0
2017-Oct-06 15:59N 47°21' W 002°31'0 0.0
2017-Oct-06 15:30N 47°21' W 002°31'0 0.0
2017-Oct-06 15:00N 47°21' W 002°31'0 0.0
2017-Oct-06 14:30N 47°21' W 002°31'0 0.0
2017-Oct-06 13:58N 47°21' W 002°31'0 0.0
2017-Oct-06 13:29N 47°21' W 002°31'0 0.0
2017-Oct-06 13:00N 47°21' W 002°31'0 0.0
2017-Oct-06 12:30N 47°21' W 002°31'0 0.0
2017-Oct-06 12:00N 47°21' W 002°31'0 0.0
2017-Oct-06 11:29N 47°21' W 002°31'0 0.0
2017-Oct-06 10:26N 47°21' W 002°31'0 0.0
2017-Oct-06 09:52N 47°21' W 002°31'0 0.0
2017-Oct-06 09:23N 47°21' W 002°31'0 0.0
2017-Oct-06 09:00N 47°21' W 002°31'0 0.0
2017-Oct-06 08:30N 47°21' W 002°31'0 0.0
2017-Oct-06 08:00N 47°21' W 002°31'0 0.0
2017-Oct-06 07:30N 47°21' W 002°31'0 0.0
2017-Oct-06 06:59N 47°21' W 002°31'0 0.0
2017-Oct-06 06:30N 47°21' W 002°31'0 0.0
2017-Oct-06 06:00N 47°21' W 002°31'0 0.0
2017-Oct-06 05:30N 47°21' W 002°31'0 0.0
2017-Oct-06 04:58N 47°21' W 002°31'0 0.0
2017-Oct-06 04:30N 47°21' W 002°31'0 0.0
2017-Oct-06 04:00N 47°21' W 002°31'0 0.0
2017-Oct-06 03:30N 47°21' W 002°31'0 0.0
2017-Oct-06 03:00N 47°21' W 002°31'0 0.0
2017-Oct-06 02:30N 47°21' W 002°31'0 0.0
2017-Oct-06 02:00N 47°21' W 002°31'0 0.0
2017-Oct-06 01:30N 47°21' W 002°31'0 0.0
2017-Oct-06 01:00N 47°21' W 002°31'0 0.0
2017-Oct-06 00:26N 47°21' W 002°31'0 0.0
2017-Oct-05 23:59N 47°21' W 002°31'0 0.0
2017-Oct-05 23:27N 47°21' W 002°31'0 0.0
2017-Oct-05 22:59N 47°21' W 002°31'0 0.0
2017-Oct-05 22:16N 47°21' W 002°31'0 0.0
2017-Oct-05 21:57N 47°21' W 002°31'0 0.0
2017-Oct-05 21:26N 47°21' W 002°31'0 0.0
2017-Oct-05 19:30N 47°21' W 002°31'0 0.0
2017-Oct-05 18:28N 47°21' W 002°31'0 0.0
2017-Oct-05 17:55N 47°21' W 002°31'0 0.0
2017-Oct-05 17:19N 47°21' W 002°31'0 0.0
2017-Oct-05 16:51N 47°21' W 002°31'7 5.2
2017-Oct-05 15:25N 47°15' W 002°37'35 8.4
2017-Oct-05 11:12N 46°49' W 003°13'310.1
2017-Oct-05 10:52N 46°47' W 003°16'410.0
2017-Oct-05 10:30N 46°44' W 003°20'6 9.9
2017-Oct-05 09:55N 46°40' W 003°25'410.0
2017-Oct-05 09:30N 46°37' W 003°30'5 9.8
2017-Oct-05 09:00N 46°33' W 003°35'5 9.6
2017-Oct-05 08:30N 46°30' W 003°39'5 9.5
2017-Oct-05 08:00N 46°26' W 003°44'6 9.5
2017-Oct-05 07:25N 46°22' W 003°49'4 9.4
2017-Oct-05 06:59N 46°18' W 003°53'19 7.2
2017-Oct-05 04:16N 46°02' W 004°08'  
Track history (hours):
 
Tides and Currents Weather Stations Pressure Air Temp Water Temp Dewpoint Dewpoint Depression Visibility Wind Speed Wind Dir Waves Ship Positions

F/V Mailys Charlie

Last reported at 2017-Oct-11 00:00 UTC. Time now 2017-Oct-17 17:24 UTC.
Position N 43°46' W 002°25'.

Length 19 m.

Type: Fishing. MMSI: 228240800.

Date/timePositionNaut miles runAvg speedWind from/ knotsBaromVisibWave heightAir tempDewpointWater temp
2017-Oct-11 00:00N 43°46' W 002°25'2 4.0
2017-Oct-10 23:30N 43°48' W 002°26'2 4.2
2017-Oct-10 23:00N 43°50' W 002°25'2 4.0
2017-Oct-10 22:30N 43°51' W 002°23'2 3.6
2017-Oct-10 22:00N 43°52' W 002°25'2 3.1
2017-Oct-10 21:30N 43°53' W 002°26'2 4.4
2017-Oct-10 21:00N 43°55' W 002°26'2 4.4
2017-Oct-10 20:30N 43°58' W 002°25'2 4.4
2017-Oct-10 20:00N 43°60' W 002°25'1 2.7
2017-Oct-10 19:30N 44°01' W 002°25'2 4.2
2017-Oct-10 19:00N 44°01' W 002°28'2 3.3
2017-Oct-10 18:30N 44°02' W 002°30'1 2.9
2017-Oct-10 18:00N 44°03' W 002°30'3 6.0
2017-Oct-10 17:30N 44°06' W 002°33'5 9.4
2017-Oct-10 17:00N 44°10' W 002°36'5 9.7
2017-Oct-10 16:30N 44°14' W 002°40'5 9.6
2017-Oct-10 16:00N 44°18' W 002°43'5 9.7
2017-Oct-10 15:30N 44°22' W 002°47'5 9.5
2017-Oct-10 15:00N 44°26' W 002°50'164 7.8
2017-Oct-09 17:52N 47°10' W 002°42'3 8.7
2017-Oct-09 17:30N 47°13' W 002°39'5 8.8
2017-Oct-09 16:59N 47°17' W 002°36'4 8.4
2017-Oct-09 16:30N 47°20' W 002°32'1 1.7
2017-Oct-09 15:59N 47°21' W 002°31'0 0.0
2017-Oct-09 13:22N 47°21' W 002°31'0 0.0
2017-Oct-09 12:49N 47°21' W 002°31'0 0.0
2017-Oct-09 11:57N 47°21' W 002°31'0 0.0
2017-Oct-09 11:23N 47°21' W 002°31'0 0.0
2017-Oct-09 10:57N 47°21' W 002°31'0 0.0
2017-Oct-09 08:39N 47°21' W 002°31'0 0.0
2017-Oct-09 08:29N 47°21' W 002°31'0 0.0
2017-Oct-09 07:57N 47°21' W 002°31'0 0.0
2017-Oct-09 07:17N 47°21' W 002°31'0 0.0
2017-Oct-09 06:58N 47°21' W 002°31'0 0.0
2017-Oct-09 06:28N 47°21' W 002°31'0 0.0
2017-Oct-09 06:00N 47°21' W 002°31'0 0.0
2017-Oct-09 05:30N 47°21' W 002°31'0 0.0
2017-Oct-09 04:59N 47°21' W 002°31'0 0.0
2017-Oct-09 04:29N 47°21' W 002°31'0 0.0
2017-Oct-09 04:00N 47°21' W 002°31'0 0.0
2017-Oct-09 03:30N 47°21' W 002°31'0 0.0
2017-Oct-09 03:00N 47°21' W 002°31'0 0.0
2017-Oct-09 02:27N 47°21' W 002°31'0 0.0
2017-Oct-09 02:00N 47°21' W 002°31'0 0.0
2017-Oct-09 01:30N 47°21' W 002°31'0 0.0
2017-Oct-09 00:59N 47°21' W 002°31'0 0.0
2017-Oct-09 00:29N 47°21' W 002°31'0 0.0
2017-Oct-08 22:59N 47°21' W 002°31'0 0.0
2017-Oct-08 22:29N 47°21' W 002°31'0 0.0
2017-Oct-08 21:58N 47°21' W 002°31'0 0.0
2017-Oct-08 21:29N 47°21' W 002°31'0 0.0
2017-Oct-08 20:52N 47°21' W 002°31'0 0.0
2017-Oct-08 20:27N 47°21' W 002°31'0 0.0
2017-Oct-08 20:00N 47°21' W 002°31'0 0.0
2017-Oct-08 19:29N 47°21' W 002°31'0 0.0
2017-Oct-08 18:59N 47°21' W 002°31'0 0.0
2017-Oct-08 18:29N 47°21' W 002°31'0 0.0
2017-Oct-08 17:57N 47°21' W 002°31'0 0.0
2017-Oct-08 17:30N 47°21' W 002°31'0 0.0
2017-Oct-08 17:00N 47°21' W 002°31'0 0.0
2017-Oct-08 16:29N 47°21' W 002°31'0 0.0
2017-Oct-08 16:00N 47°21' W 002°31'0 0.0
2017-Oct-08 15:30N 47°21' W 002°31'0 0.0
2017-Oct-08 15:00N 47°21' W 002°31'0 0.0
2017-Oct-08 14:28N 47°21' W 002°31'0 0.0
2017-Oct-08 13:59N 47°21' W 002°31'0 0.0
2017-Oct-08 13:30N 47°21' W 002°31'0 0.0
2017-Oct-08 12:59N 47°21' W 002°31'0 0.0
2017-Oct-08 10:21N 47°21' W 002°31'0 0.0
2017-Oct-08 09:59N 47°21' W 002°31'0 0.0
2017-Oct-08 09:29N 47°21' W 002°31'0 0.0
2017-Oct-08 08:59N 47°21' W 002°31'0 0.0
2017-Oct-08 08:25N 47°21' W 002°31'0 0.0
2017-Oct-08 07:59N 47°21' W 002°31'0 0.0
2017-Oct-08 07:24N 47°21' W 002°31'0 0.0
2017-Oct-08 06:52N 47°21' W 002°31'0 0.0
2017-Oct-08 06:30N 47°21' W 002°31'0 0.0
2017-Oct-08 05:58N 47°21' W 002°31'0 0.0
2017-Oct-08 05:24N 47°21' W 002°31'0 0.0
2017-Oct-08 04:59N 47°21' W 002°31'0 0.0
2017-Oct-08 04:29N 47°21' W 002°31'0 0.0
2017-Oct-08 04:00N 47°21' W 002°31'0 0.0
2017-Oct-08 03:30N 47°21' W 002°31'0 0.0
2017-Oct-08 03:00N 47°21' W 002°31'0 0.0
2017-Oct-08 02:30N 47°21' W 002°31'0 0.0
2017-Oct-08 02:00N 47°21' W 002°31'0 0.0
2017-Oct-08 01:29N 47°21' W 002°31'0 0.0
2017-Oct-08 00:58N 47°21' W 002°31'0 0.0
2017-Oct-08 00:22N 47°21' W 002°31'0 0.0
2017-Oct-07 21:12N 47°21' W 002°31'0 0.0
2017-Oct-07 20:58N 47°21' W 002°31'0 0.0
2017-Oct-07 20:20N 47°21' W 002°31'0 0.0
2017-Oct-07 19:52N 47°21' W 002°31'0 0.0
2017-Oct-07 19:26N 47°21' W 002°31'0 0.0
2017-Oct-07 19:00N 47°21' W 002°31'0 0.0
2017-Oct-07 18:30N 47°21' W 002°31'0 0.0
2017-Oct-07 18:00N 47°21' W 002°31'0 0.0
2017-Oct-07 17:30N 47°21' W 002°31'0 0.0
2017-Oct-07 16:59N 47°21' W 002°31'0 0.0
2017-Oct-07 16:30N 47°21' W 002°31'0 0.0
2017-Oct-07 16:00N 47°21' W 002°31'0 0.0
2017-Oct-07 15:30N 47°21' W 002°31'0 0.0
2017-Oct-07 15:00N 47°21' W 002°31'0 0.0
2017-Oct-07 14:29N 47°21' W 002°31'0 0.0
2017-Oct-07 14:00N 47°21' W 002°31'0 0.0
2017-Oct-07 13:27N 47°21' W 002°31'0 0.0
2017-Oct-07 08:24N 47°21' W 002°31'0 0.0
2017-Oct-07 07:59N 47°21' W 002°31'0 0.0
2017-Oct-07 07:29N 47°21' W 002°31'0 0.0
2017-Oct-07 07:00N 47°21' W 002°31'0 0.0
2017-Oct-07 06:28N 47°21' W 002°31'0 0.0
2017-Oct-07 05:58N 47°21' W 002°31'0 0.0
2017-Oct-07 05:22N 47°21' W 002°31'0 0.0
2017-Oct-07 04:57N 47°21' W 002°31'0 0.0
2017-Oct-07 04:28N 47°21' W 002°31'0 0.0
2017-Oct-07 03:58N 47°21' W 002°31'0 0.0
2017-Oct-07 03:30N 47°21' W 002°31'0 0.0
2017-Oct-07 02:59N 47°21' W 002°31'0 0.0
2017-Oct-07 02:30N 47°21' W 002°31'0 0.0
2017-Oct-07 01:59N 47°21' W 002°31'0 0.0
2017-Oct-07 01:30N 47°21' W 002°31'0 0.0
2017-Oct-07 01:00N 47°21' W 002°31'0 0.0
2017-Oct-07 00:29N 47°21' W 002°31'0 0.0
2017-Oct-07 00:00N 47°21' W 002°31'0 0.0
2017-Oct-06 23:30N 47°21' W 002°31'0 0.0
2017-Oct-06 22:39N 47°21' W 002°31'0 0.0
2017-Oct-06 22:30N 47°21' W 002°31'0 0.0
2017-Oct-06 21:15N 47°21' W 002°31'0 0.0
2017-Oct-06 21:00N 47°21' W 002°31'0 0.0
2017-Oct-06 20:29N 47°21' W 002°31'0 0.0
2017-Oct-06 20:00N 47°21' W 002°31'0 0.0
2017-Oct-06 19:27N 47°21' W 002°31'0 0.0
2017-Oct-06 18:57N 47°21' W 002°31'0 0.0
2017-Oct-06 18:29N 47°21' W 002°31'0 0.0
2017-Oct-06 18:00N 47°21' W 002°31'0 0.0
2017-Oct-06 17:30N 47°21' W 002°31'0 0.0
2017-Oct-06 17:00N 47°21' W 002°31'0 0.0
2017-Oct-06 16:30N 47°21' W 002°31'0 0.0
2017-Oct-06 15:59N 47°21' W 002°31'0 0.0
2017-Oct-06 15:30N 47°21' W 002°31'0 0.0
2017-Oct-06 15:00N 47°21' W 002°31'0 0.0
2017-Oct-06 14:30N 47°21' W 002°31'0 0.0
2017-Oct-06 13:58N 47°21' W 002°31'0 0.0
2017-Oct-06 13:29N 47°21' W 002°31'0 0.0
2017-Oct-06 13:00N 47°21' W 002°31'0 0.0
2017-Oct-06 12:30N 47°21' W 002°31'0 0.0
2017-Oct-06 12:00N 47°21' W 002°31'0 0.0
2017-Oct-06 11:29N 47°21' W 002°31'0 0.0
2017-Oct-06 10:26N 47°21' W 002°31'0 0.0
2017-Oct-06 09:52N 47°21' W 002°31'0 0.0
2017-Oct-06 09:23N 47°21' W 002°31'0 0.0
2017-Oct-06 09:00N 47°21' W 002°31'0 0.0
2017-Oct-06 08:30N 47°21' W 002°31'0 0.0
2017-Oct-06 08:00N 47°21' W 002°31'0 0.0
2017-Oct-06 07:30N 47°21' W 002°31'0 0.0
2017-Oct-06 06:59N 47°21' W 002°31'0 0.0
2017-Oct-06 06:30N 47°21' W 002°31'0 0.0
2017-Oct-06 06:00N 47°21' W 002°31'0 0.0
2017-Oct-06 05:30N 47°21' W 002°31'0 0.0
2017-Oct-06 04:58N 47°21' W 002°31'0 0.0
2017-Oct-06 04:30N 47°21' W 002°31'0 0.0
2017-Oct-06 04:00N 47°21' W 002°31'0 0.0
2017-Oct-06 03:30N 47°21' W 002°31'0 0.0
2017-Oct-06 03:00N 47°21' W 002°31'0 0.0
2017-Oct-06 02:30N 47°21' W 002°31'0 0.0
2017-Oct-06 02:00N 47°21' W 002°31'0 0.0
2017-Oct-06 01:30N 47°21' W 002°31'0 0.0
2017-Oct-06 01:00N 47°21' W 002°31'0 0.0
2017-Oct-06 00:26N 47°21' W 002°31'0 0.0
2017-Oct-05 23:59N 47°21' W 002°31'0 0.0
2017-Oct-05 23:27N 47°21' W 002°31'0 0.0
2017-Oct-05 22:59N 47°21' W 002°31'0 0.0
2017-Oct-05 22:16N 47°21' W 002°31'0 0.0
2017-Oct-05 21:57N 47°21' W 002°31'0 0.0
2017-Oct-05 21:26N 47°21' W 002°31'0 0.0
2017-Oct-05 19:30N 47°21' W 002°31'0 0.0
2017-Oct-05 18:28N 47°21' W 002°31'0 0.0
2017-Oct-05 17:55N 47°21' W 002°31'0 0.0
2017-Oct-05 17:19N 47°21' W 002°31'0 0.0
2017-Oct-05 16:51N 47°21' W 002°31'7 5.2
2017-Oct-05 15:25N 47°15' W 002°37'35 8.4
2017-Oct-05 11:12N 46°49' W 003°13'310.1
2017-Oct-05 10:52N 46°47' W 003°16'410.0
2017-Oct-05 10:30N 46°44' W 003°20'6 9.9
2017-Oct-05 09:55N 46°40' W 003°25'410.0
2017-Oct-05 09:30N 46°37' W 003°30'5 9.8
2017-Oct-05 09:00N 46°33' W 003°35'5 9.6
2017-Oct-05 08:30N 46°30' W 003°39'5 9.5
2017-Oct-05 08:00N 46°26' W 003°44'6 9.5
2017-Oct-05 07:25N 46°22' W 003°49'4 9.4
2017-Oct-05 06:59N 46°18' W 003°53'19 7.2
2017-Oct-05 04:16N 46°02' W 004°08'  

Dump ship's entire track history